• Join FlightAware (Why Join?)
  • Login
  • US Flag 
11:44AM EDT


 

Airport Tracker/Info


-or-


 

Live Flight TrackerFlight Track Log ✈ UAL4533 ✈ 31-Mar-2014 ✈ KPVD - KIAD

Flight Track Log - Related Links

Times and Time Zones

All times are in EDT time to prevent confusion due to time zone crossing. See the UAL4533 flight status page for this flight to view local times or setup timezone preferences in your user account.

Time Position Orientation Groundspeed Altitude Reporting Facility
EDT Latitude Longitude Course Direction KTS MPH feet Rate Location/Type
10:01AM 41.7314 -71.4206 15° North 161 185 500  Level Boston Center
10:02AM 41.7478 -71.4147 15° North 144 166 1,800 2,280 Climbing Boston Center
10:02AM 41.7772 -71.4303 338° Northwest 176 203 3,000 2,100 Climbing Boston Center
10:03AM 41.7900 -71.4506 310° West 206 237 3,900 2,280 Climbing Boston Center
10:03AM 41.8128 -71.5011 301° West 223 257 5,300 1,740 Climbing Boston Center
10:04AM 41.8222 -71.5258 297° West 250 288 5,700 1,740 Climbing Boston Center
10:04AM 41.8481 -71.5864 300° West 267 307 7,100 2,160 Climbing Boston Center
10:05AM 41.8853 -71.6739 300° West 271 312 9,500 2,220 Climbing Boston Center
10:06AM 41.9258 -71.7725 299° West 280 322 11,700 2,040 Climbing Boston Center
10:07AM 41.9631 -71.8689 297° West 289 333 13,700 1,860 Climbing Boston Center
10:08AM 41.9858 -71.9706 287° West 293 337 15,500 1,740 Climbing Boston Center
10:09AM 42.0136 -72.0847 288° West 301 346 17,300 1,740 Climbing Boston Center
10:10AM 42.0383 -72.1894 288° West 303 349 19,100 1,620 Climbing Boston Center
10:11AM 42.0639 -72.2936 288° West 314 361 20,600 1,500 Climbing Boston Center
10:12AM 42.0914 -72.4094 288° West 324 373 22,300 1,620 Climbing Boston Center
10:14AM 42.1186 -72.5261 287° West 325 374 24,000 1,620 Climbing Boston Center
10:14AM 42.1461 -72.6439 288° West 329 379 25,600 1,440 Climbing Boston Center
10:16AM 42.1325 -72.7661 261° West 354 407 27,000 1,020 Climbing Boston Center
10:17AM 42.0697 -72.8742 232° Southwest 368 423 27,800 840 Climbing Boston Center
10:18AM 41.9900 -73.0103 232° Southwest 382 440 28,800 840 Climbing Boston Center
10:19AM 41.9211 -73.1278 232° Southwest 391 450 29,600 540 Climbing Boston Center
10:20AM 41.8492 -73.2475 231° Southwest 401 461 30,000 180 Climbing Boston Center
10:21AM 41.7742 -73.3719 231° Southwest 418 481 30,000  Level Boston Center
10:22AM 41.6875 -73.4969 227° Southwest 441 507 30,000 -360 Level Boston Center
10:23AM 41.5975 -73.6231 226° Southwest 457 526 29,300 -840 Descending Boston Center
10:24AM 41.5117 -73.7436 226° Southwest 458 527 28,300 -660 Descending Boston Center
10:25AM 41.4292 -73.8614 227° Southwest 442 509 28,000 -180 Descending Boston Center
10:26AM 41.3450 -73.9786 226° Southwest 439 505 28,000 -360 Level Boston Center
10:27AM 41.2603 -74.0983 227° Southwest 442 509 27,300 -1,020 Descending Boston Center
10:28AM 41.1564 -74.2428 226° Southwest 448 516 26,000 -660 Descending Boston Center
10:29AM 41.0722 -74.3589 226° Southwest 442 509 26,000  Level Boston Center
10:30AM 40.9928 -74.4714 227° Southwest 427 491 26,000  Level Boston Center
10:31AM 40.9108 -74.5861 227° Southwest 435 501 26,000  Level Boston Center
10:32AM 40.8439 -74.7258 238° Southwest 448 516 26,000  Level Boston Center
10:33AM 40.7800 -74.8686 239° Southwest 449 517 26,000  Level Boston Center
10:34AM 40.7133 -75.0156 239° Southwest 454 522 26,000  Level Boston Center
10:35AM 40.6469 -75.1597 239° Southwest 460 529 26,000  Level Boston Center
10:36AM 40.5800 -75.3058 239° Southwest 462 532 26,000 -600 Level Boston Center
10:37AM 40.5133 -75.4497 239° Southwest 464 534 24,800 -1,560 Descending Boston Center
10:38AM 40.4469 -75.5925 239° Southwest 462 532 22,900 -2,160 Descending Boston Center
10:39AM 40.3594 -75.7828 239° Southwest 447 514 20,100 -1,320 Descending New York Center
10:40AM 40.2950 -75.9225 239° Southwest 447 514 20,000 -60 Descending New York Center
10:41AM 40.2283 -76.0642 238° Southwest 453 521 20,000 -600 Level New York Center
10:42AM 40.1706 -76.1875 239° Southwest 453 521 18,800 -1,320 Descending New York Center
10:43AM 40.1061 -76.3183 237° Southwest 439 505 17,500 -900 Descending New York Center
10:44AM 40.0408 -76.4594 239° Southwest 424 488 17,000 -840 Descending New York Center
10:45AM 39.9847 -76.5850 240° Southwest 403 464 15,900 -660 Descending New York Center
10:47AM 39.8667 -76.8500 240° Southwest 397 457 15,000 -600 Descending Potomac TRACON
10:48AM 39.8000 -76.9667 233° Southwest 385 443 14,100 -1,560 Descending Potomac TRACON
10:50AM 39.7265 -77.1233 239° Southwest  Level FlightAware Approximate
10:50AM 39.7000 -77.2000 239° Southwest 395 455 10,300  Level Potomac TRACON
10:51AM 39.6333 -77.3167 233° Southwest 357 411 10,000 -360 Descending Potomac TRACON
10:52AM 39.5333 -77.3500 194° South 343 395 9,600 -1,140 Descending Potomac TRACON
10:53AM 39.4500 -77.3500 180° South 327 376 7,800 -1,440 Descending Potomac TRACON
10:54AM 39.3667 -77.3667 189° South 315 362 6,800 -900 Descending Potomac TRACON
10:55AM 39.2667 -77.3667 180° South 310 357 6,000 -480 Descending Potomac TRACON
10:56AM 39.1833 -77.3667 180° South 308 354 5,900 -540 Descending Potomac TRACON
10:57AM 39.1000 -77.3500 171° South 293 337 5,000 -660 Descending Potomac TRACON
11:00AM 38.8667 -77.3500 349° North 270 311 3,300 -360 Descending Potomac TRACON
11:03AM 38.7000 -77.4167 349° North 201 231 3,000 -60 Descending Potomac TRACON
11:05AM 38.8200 -77.4376 339° North  Level Estimated
11:05AM 38.7833 -77.4333 339° North 160 184 3,000  Level Potomac TRACON
11:06AM 38.9333 -77.4500 349° North  Level FlightAware Approximate
11:07AM 38.8667 -77.4333 360° North 134 154 1,400  Level Potomac TRACON
11:09AM 38.9474 -77.4599 349° North  Level Estimated